CNS weather

Cairns International Airport
Cairns, Queensland, Australia

Public forecast

Using degrees Celsius for public forecast. Weather courtesy of forecast.io.

Current aviation weather report (METAR) for Cairns International Airport

Retrieved 2019/11/21 17:30 UTC (8 minutes ago):

YBCS 211730Z AUTO 17004KT 9999 // SCT036 SCT041 SCT045 24/19 Q1011

Aviation forecast (TAF) for Cairns International Airport

Retrieved 2019/11/21 12:33 UTC (5 hours ago):

TAF YBCS 211102Z 2112/2212 16006KT 9999 FEW030 FM211400 16006KT 9999 SCT025 FM212200 12012KT 9999 FEW040 FM220900 16006KT 9999 SCT030